createdAt,value
2022-11-25T00:00:49.731Z,88.47
2022-11-25T00:03:17.120Z,89.07
2022-11-25T00:05:44.629Z,88.70
2022-11-25T00:08:11.859Z,88.03
2022-11-25T00:10:39.018Z,88.11
2022-11-25T00:13:06.806Z,88.19
2022-11-25T00:15:34.042Z,88.47
2022-11-25T00:18:01.254Z,88.89
2022-11-25T00:20:28.439Z,87.61
2022-11-25T00:22:55.745Z,88.75
2022-11-25T00:25:23.355Z,88.42
2022-11-25T00:27:52.754Z,87.20
2022-11-25T00:30:20.064Z,87.82
2022-11-25T00:32:47.294Z,88.22
2022-11-25T00:35:14.834Z,89.25
2022-11-25T00:37:42.108Z,88.91
2022-11-25T00:40:10.218Z,88.32
2022-11-25T00:42:56.380Z,88.29
2022-11-25T00:45:23.561Z,88.49
2022-11-25T00:47:53.490Z,88.58
2022-11-25T00:50:20.681Z,87.95
2022-11-25T00:52:47.881Z,87.82
2022-11-25T00:55:15.180Z,88.80
2022-11-25T00:57:42.653Z,89.55
2022-11-25T01:00:11.477Z,88.66
2022-11-25T01:02:41.970Z,88.97
2022-11-25T01:05:10.038Z,88.84
2022-11-25T01:07:37.573Z,88.60
2022-11-25T01:10:05.340Z,88.53
2022-11-25T01:12:32.535Z,88.47
2022-11-25T01:14:59.732Z,89.08
2022-11-25T01:17:27.158Z,88.85
2022-11-25T01:19:54.632Z,88.51
2022-11-25T01:22:21.820Z,88.80
2022-11-25T01:24:48.969Z,90.28
2022-11-25T01:27:16.151Z,90.27
2022-11-25T01:29:43.315Z,90.44
2022-11-25T01:32:10.662Z,89.62
2022-11-25T01:34:39.175Z,89.74
2022-11-25T01:37:06.510Z,89.98
2022-11-25T01:39:33.691Z,90.26
2022-11-25T01:42:02.070Z,90.01
2022-11-25T01:44:30.983Z,90.04
2022-11-25T01:47:16.852Z,89.55
2022-11-25T01:50:05.459Z,89.24
2022-11-25T01:52:44.013Z,87.83
2022-11-25T01:55:14.910Z,88.63
2022-11-25T01:57:47.246Z,89.00
2022-11-25T02:00:14.877Z,89.70
2022-11-25T02:02:44.744Z,90.36
2022-11-25T02:05:14.505Z,89.77
2022-11-25T02:07:44.536Z,89.21
2022-11-25T02:10:14.998Z,89.24
2022-11-25T02:12:44.985Z,89.34
2022-11-25T02:15:13.862Z,89.96
2022-11-25T02:17:42.583Z,89.69
2022-11-25T02:20:15.095Z,89.62
2022-11-25T02:22:45.479Z,90.65
2022-11-25T02:25:30.780Z,90.73
2022-11-25T02:28:14.836Z,89.98
2022-11-25T02:30:42.977Z,90.19
2022-11-25T02:33:10.432Z,89.54
2022-11-25T02:35:41.071Z,89.71
2022-11-25T02:38:21.020Z,89.95
2022-11-25T02:41:12.325Z,90.46
2022-11-25T02:43:40.286Z,90.92
2022-11-25T02:46:18.798Z,90.74
2022-11-25T02:51:37.637Z,89.26
2022-11-25T02:54:05.165Z,89.37
2022-11-25T02:56:34.413Z,89.35
2022-11-25T02:59:02.212Z,88.79
2022-11-25T03:01:31.484Z,89.31
2022-11-25T03:03:59.241Z,89.57
2022-11-25T03:06:29.156Z,90.24
2022-11-25T03:08:57.374Z,90.10
2022-11-25T03:12:03.766Z,90.50
2022-11-25T03:14:31.096Z,90.27
2022-11-25T03:16:58.363Z,90.20
2022-11-25T03:19:26.982Z,89.84
2022-11-25T03:21:54.147Z,89.28
2022-11-25T03:24:21.441Z,89.23
2022-11-25T03:26:49.930Z,89.10
2022-11-25T03:29:18.134Z,88.68
2022-11-25T03:31:45.468Z,88.67
2022-11-25T03:34:13.015Z,89.08
2022-11-25T03:36:41.143Z,89.01
2022-11-25T03:39:09.104Z,88.42
2022-11-25T03:41:38.022Z,88.76
2022-11-25T03:44:05.462Z,88.43
2022-11-25T03:46:34.658Z,88.59
2022-11-25T03:49:04.518Z,88.52
2022-11-25T03:51:31.866Z,88.72
2022-11-25T03:54:00.124Z,88.77
2022-11-25T03:56:27.451Z,89.14
2022-11-25T03:58:54.810Z,89.84
2022-11-25T04:01:23.076Z,90.39
2022-11-25T04:03:51.017Z,89.95
2022-11-25T04:06:20.158Z,89.72
2022-11-25T04:08:48.667Z,90.16
2022-11-25T04:11:15.917Z,89.71
2022-11-25T04:13:47.070Z,89.78
2022-11-25T04:16:23.813Z,91.13
2022-11-25T04:18:52.361Z,92.39
2022-11-25T04:21:19.633Z,92.02
2022-11-25T04:23:46.945Z,91.79
2022-11-25T04:26:15.479Z,90.94
2022-11-25T04:28:42.813Z,91.04
2022-11-25T04:31:10.924Z,92.10
2022-11-25T04:33:41.774Z,91.66
2022-11-25T04:36:09.382Z,91.73
2022-11-25T04:38:36.898Z,92.21
2022-11-25T04:41:05.738Z,92.24
2022-11-25T04:43:38.421Z,91.65
2022-11-25T04:46:16.236Z,91.16
2022-11-25T04:48:47.560Z,90.91
2022-11-25T04:51:16.120Z,90.58
2022-11-25T04:53:45.619Z,90.86
2022-11-25T04:56:18.843Z,90.82
2022-11-25T04:59:06.059Z,90.67
2022-11-25T05:01:36.629Z,90.26
2022-11-25T05:04:15.889Z,90.35
2022-11-25T05:06:43.990Z,89.92
2022-11-25T05:09:12.513Z,89.85
2022-11-25T05:11:41.745Z,90.31
2022-11-25T05:14:09.385Z,91.17
2022-11-25T05:16:37.009Z,90.76
2022-11-25T05:19:04.415Z,91.53
2022-11-25T05:21:32.942Z,91.25
2022-11-25T05:24:00.179Z,90.91
2022-11-25T05:26:29.887Z,91.64
2022-11-25T05:28:59.875Z,90.93
2022-11-25T05:31:27.584Z,91.17
2022-11-25T05:33:54.871Z,91.00
2022-11-25T05:36:23.301Z,91.61
2022-11-25T05:38:50.497Z,91.30
2022-11-25T05:41:26.933Z,90.90
2022-11-25T05:43:54.610Z,91.09
2022-11-25T05:46:23.114Z,91.76
2022-11-25T05:48:55.751Z,91.38
2022-11-25T05:51:24.112Z,91.63
2022-11-25T05:53:52.147Z,91.19
2022-11-25T05:56:21.913Z,91.58
2022-11-25T05:59:24.420Z,92.71
2022-11-25T06:02:14.464Z,92.51
2022-11-25T06:04:41.716Z,92.02
2022-11-25T06:07:09.375Z,91.03
2022-11-25T06:09:36.721Z,90.89
2022-11-25T06:12:04.168Z,91.12
2022-11-25T06:14:34.533Z,91.01
2022-11-25T06:17:02.659Z,90.51
2022-11-25T06:19:37.215Z,89.94
2022-11-25T06:22:04.850Z,90.07
2022-11-25T06:24:32.078Z,90.23
2022-11-25T06:27:04.840Z,90.04
2022-11-25T06:29:33.162Z,89.83
2022-11-25T06:32:00.399Z,90.31
2022-11-25T06:34:42.827Z,89.67
2022-11-25T06:37:24.907Z,89.27
2022-11-25T06:39:52.514Z,88.74
2022-11-25T06:42:19.757Z,89.10
2022-11-25T06:44:46.938Z,88.86
2022-11-25T06:47:14.205Z,88.61
2022-11-25T06:49:41.348Z,89.73
2022-11-25T06:52:08.655Z,89.96
2022-11-25T06:54:36.510Z,88.57
2022-11-25T06:57:03.887Z,88.62
2022-11-25T06:59:32.356Z,89.30
2022-11-25T07:01:59.772Z,89.42
2022-11-25T07:04:27.064Z,89.79
2022-11-25T07:06:54.588Z,90.13
2022-11-25T07:09:22.540Z,89.65
2022-11-25T07:11:49.722Z,89.78
2022-11-25T07:14:17.318Z,89.37
2022-11-25T07:16:45.384Z,88.92
2022-11-25T07:19:14.488Z,88.72
2022-11-25T07:21:43.387Z,88.84
2022-11-25T07:24:11.040Z,89.38
2022-11-25T07:26:39.363Z,89.52
2022-11-25T07:31:59.489Z,90.33
2022-11-25T07:34:26.767Z,90.73
2022-11-25T07:36:54.111Z,90.33
2022-11-25T07:39:22.894Z,89.82
2022-11-25T07:41:51.444Z,89.39
2022-11-25T07:44:19.767Z,89.38
2022-11-25T07:46:53.050Z,88.66
2022-11-25T07:49:24.835Z,87.17
2022-11-25T07:51:57.998Z,86.55
2022-11-25T07:54:25.733Z,86.71
2022-11-25T07:56:53.609Z,89.61
2022-11-25T07:59:22.656Z,87.90
2022-11-25T08:01:54.394Z,85.16
2022-11-25T08:04:22.503Z,84.26
2022-11-25T08:06:51.300Z,84.06
2022-11-25T08:09:23.731Z,83.87
2022-11-25T08:11:51.686Z,84.33
2022-11-25T08:14:18.979Z,85.44
2022-11-25T08:16:46.798Z,84.87
2022-11-25T08:19:15.808Z,84.23
2022-11-25T08:21:43.295Z,83.86
2022-11-25T08:24:15.935Z,84.31
2022-11-25T08:26:43.314Z,84.82
2022-11-25T08:29:13.148Z,84.55
2022-11-25T08:31:40.397Z,84.43
2022-11-25T08:34:07.574Z,84.16
2022-11-25T08:36:36.197Z,83.85
2022-11-25T08:39:28.925Z,84.55
2022-11-25T08:41:54.097Z,84.02
2022-11-25T08:44:21.347Z,83.58
2022-11-25T08:46:48.654Z,84.28
2022-11-25T08:49:17.365Z,85.28
2022-11-25T08:51:44.717Z,85.22
2022-11-25T08:54:12.401Z,84.60
2022-11-25T08:56:39.674Z,84.55
2022-11-25T08:59:07.023Z,84.86
2022-11-25T09:01:34.399Z,85.08
2022-11-25T09:04:01.659Z,85.18
2022-11-25T09:06:29.382Z,85.22
2022-11-25T09:08:59.164Z,85.16
2022-11-25T09:11:26.609Z,84.47
2022-11-25T09:13:53.972Z,84.15
2022-11-25T09:16:21.561Z,83.66
2022-11-25T09:18:55.386Z,84.27
2022-11-25T09:21:25.219Z,84.46
2022-11-25T09:23:54.619Z,84.12
2022-11-25T09:26:29.891Z,84.23
2022-11-25T09:28:57.717Z,84.19
2022-11-25T09:31:25.166Z,83.74
2022-11-25T09:33:52.613Z,84.31
2022-11-25T09:36:20.902Z,83.87
2022-11-25T09:38:48.201Z,83.51
2022-11-25T09:41:38.514Z,83.38
2022-11-25T09:44:39.447Z,83.18
2022-11-25T09:47:46.656Z,83.08
2022-11-25T09:50:23.988Z,82.61
2022-11-25T09:53:10.738Z,82.70
2022-11-25T09:55:42.988Z,82.61
2022-11-25T09:58:33.513Z,83.94
2022-11-25T10:01:05.438Z,83.50
2022-11-25T10:03:38.258Z,83.14
2022-11-25T10:06:18.403Z,83.01
2022-11-25T10:08:48.242Z,84.47
2022-11-25T10:11:23.201Z,84.14
2022-11-25T10:14:07.692Z,83.56
2022-11-25T10:16:37.960Z,84.32
2022-11-25T10:19:24.777Z,84.30
2022-11-25T10:21:52.705Z,84.13
2022-11-25T10:24:21.472Z,83.00
2022-11-25T10:26:54.963Z,82.30
2022-11-25T10:29:25.763Z,83.67
2022-11-25T10:31:59.487Z,82.24
2022-11-25T10:34:40.871Z,81.86
2022-11-25T10:37:14.067Z,82.22
2022-11-25T10:39:41.300Z,82.29
2022-11-25T10:42:19.069Z,82.10
2022-11-25T10:44:46.338Z,81.93
2022-11-25T10:47:36.999Z,82.15
2022-11-25T10:50:29.323Z,82.11
2022-11-25T10:53:10.520Z,81.64
2022-11-25T10:55:37.852Z,80.74
2022-11-25T10:58:28.175Z,82.03
2022-11-25T11:01:05.533Z,81.17
2022-11-25T11:03:33.368Z,80.73
2022-11-25T11:06:00.635Z,80.54
2022-11-25T11:08:38.448Z,80.89
2022-11-25T11:11:14.947Z,80.37
2022-11-25T11:13:43.240Z,79.61
2022-11-25T11:16:29.911Z,79.00
2022-11-25T11:18:57.817Z,80.15
2022-11-25T11:21:38.045Z,80.97
2022-11-25T11:24:22.746Z,80.81
2022-11-25T11:27:15.098Z,79.52
2022-11-25T11:29:42.589Z,79.86
2022-11-25T11:32:21.003Z,79.02
2022-11-25T11:34:51.173Z,79.24
2022-11-25T11:37:36.526Z,78.98
2022-11-25T11:40:25.583Z,78.56
2022-11-25T11:43:11.419Z,77.98
2022-11-25T11:45:56.815Z,77.29
2022-11-25T11:48:32.151Z,77.35
2022-11-25T11:51:05.604Z,77.50
2022-11-25T11:54:03.647Z,76.71
2022-11-25T11:56:52.048Z,75.62
2022-11-25T11:59:46.631Z,75.86
2022-11-25T12:02:48.230Z,76.26
2022-11-25T12:05:22.084Z,76.40
2022-11-25T12:07:58.420Z,75.44
2022-11-25T12:10:29.562Z,74.18
2022-11-25T12:13:09.053Z,73.85
2022-11-25T12:15:58.021Z,74.14
2022-11-25T12:18:28.187Z,74.29
2022-11-25T12:21:05.750Z,74.61
2022-11-25T12:24:12.410Z,74.36
2022-11-25T12:26:45.752Z,74.34
2022-11-25T12:29:19.744Z,73.93
2022-11-25T12:31:56.143Z,73.92
2022-11-25T12:34:34.857Z,74.90
2022-11-25T12:37:15.361Z,74.34
2022-11-25T12:39:51.952Z,73.61
2022-11-25T12:42:23.567Z,73.98
2022-11-25T12:45:20.286Z,73.17
2022-11-25T12:47:47.549Z,72.31
2022-11-25T12:50:18.074Z,72.61
2022-11-25T12:52:55.862Z,72.29
2022-11-25T12:55:27.917Z,71.72
2022-11-25T12:58:08.776Z,73.24
2022-11-25T13:00:48.003Z,73.36
2022-11-25T13:03:49.530Z,73.75
2022-11-25T13:06:23.902Z,73.06
2022-11-25T13:09:14.887Z,73.24
2022-11-25T13:12:23.901Z,72.08
2022-11-25T13:14:59.000Z,71.83
2022-11-25T13:17:27.430Z,71.49
2022-11-25T13:20:27.205Z,71.00
2022-11-25T13:23:10.415Z,69.82
2022-11-25T13:25:40.961Z,70.29
2022-11-25T13:28:43.997Z,70.98
2022-11-25T13:31:13.894Z,71.97
2022-11-25T13:33:44.496Z,71.74
2022-11-25T13:36:20.151Z,70.79
2022-11-25T13:38:50.619Z,69.58
2022-11-25T13:41:22.324Z,70.39
2022-11-25T13:44:01.744Z,70.34
2022-11-25T13:46:39.962Z,69.82
2022-11-25T13:49:22.204Z,69.21
2022-11-25T13:51:52.030Z,70.13
2022-11-25T13:54:23.622Z,70.65
2022-11-25T13:57:24.546Z,70.04
2022-11-25T14:00:25.646Z,69.59
2022-11-25T14:02:53.021Z,68.92
2022-11-25T14:05:46.599Z,68.38
2022-11-25T14:08:27.705Z,68.95
2022-11-25T14:11:10.313Z,68.36
2022-11-25T14:13:49.564Z,69.40
2022-11-25T14:16:39.316Z,68.48
2022-11-25T14:19:35.601Z,68.84
2022-11-25T14:22:22.794Z,68.62
2022-11-25T14:24:52.466Z,68.71
2022-11-25T14:27:23.006Z,69.12
2022-11-25T14:30:01.263Z,69.68
2022-11-25T14:32:33.070Z,69.56
2022-11-25T14:35:17.266Z,69.74
2022-11-25T14:37:47.472Z,69.20
2022-11-25T14:40:22.018Z,69.11
2022-11-25T14:42:52.179Z,69.23
2022-11-25T14:45:26.704Z,68.39
2022-11-25T14:47:54.062Z,67.55
2022-11-25T14:50:38.286Z,67.61
2022-11-25T14:53:10.190Z,68.95
2022-11-25T14:55:37.937Z,69.22
2022-11-25T14:58:05.249Z,68.90
2022-11-25T15:00:32.742Z,68.82
2022-11-25T15:03:04.906Z,68.88
2022-11-25T15:05:37.888Z,68.21
2022-11-25T15:08:08.314Z,68.44
2022-11-25T15:10:59.331Z,68.21
2022-11-25T15:13:40.995Z,67.99
2022-11-25T15:16:12.935Z,68.64
2022-11-25T15:18:48.937Z,68.50
2022-11-25T15:21:18.696Z,67.41
2022-11-25T15:23:45.985Z,67.67
2022-11-25T15:26:20.479Z,67.83
2022-11-25T15:28:48.060Z,68.09
2022-11-25T15:31:20.520Z,68.28
2022-11-25T15:33:54.367Z,68.43
2022-11-25T15:36:23.842Z,67.79
2022-11-25T15:38:51.274Z,68.86
2022-11-25T15:41:33.913Z,69.16
2022-11-25T15:44:03.423Z,69.11
2022-11-25T15:46:33.309Z,69.28
2022-11-25T15:49:06.127Z,69.72
2022-11-25T15:51:36.463Z,69.22
2022-11-25T15:54:17.433Z,69.34
2022-11-25T15:56:50.149Z,69.42
2022-11-25T15:59:42.670Z,69.38
2022-11-25T16:02:39.474Z,69.68
2022-11-25T16:05:15.813Z,70.13
2022-11-25T16:07:52.434Z,69.93
2022-11-25T16:10:22.596Z,69.88
2022-11-25T16:13:24.031Z,70.26
2022-11-25T16:16:10.145Z,70.13
2022-11-25T16:18:40.945Z,70.28
2022-11-25T16:21:12.424Z,70.65
2022-11-25T16:23:43.116Z,69.36
2022-11-25T16:26:16.881Z,69.83
2022-11-25T16:28:54.106Z,70.32
2022-11-25T16:31:22.049Z,69.74
2022-11-25T16:33:51.893Z,69.97
2022-11-25T16:36:19.272Z,70.19
2022-11-25T16:38:51.647Z,69.99
2022-11-25T16:41:28.486Z,70.89
2022-11-25T16:43:59.333Z,70.58
2022-11-25T16:46:27.206Z,69.91
2022-11-25T16:48:54.488Z,70.43
2022-11-25T16:51:24.227Z,70.08
2022-11-25T16:53:51.432Z,70.64
2022-11-25T16:56:25.683Z,70.54
2022-11-25T16:58:55.604Z,70.49
2022-11-25T17:01:25.774Z,69.88
2022-11-25T17:03:53.118Z,69.10
2022-11-25T17:06:25.968Z,69.15
2022-11-25T17:08:53.837Z,69.43
2022-11-25T17:11:29.929Z,69.26
2022-11-25T17:13:59.267Z,69.70
2022-11-25T17:16:28.052Z,69.42
2022-11-25T17:18:56.704Z,69.46
2022-11-25T17:21:28.702Z,69.62
2022-11-25T17:24:00.911Z,69.63
2022-11-25T17:26:37.605Z,70.23
2022-11-25T17:29:08.192Z,71.31
2022-11-25T17:31:37.482Z,72.13
2022-11-25T17:34:04.931Z,71.18
2022-11-25T17:36:32.162Z,71.14
2022-11-25T17:38:59.598Z,70.25
2022-11-25T17:41:28.603Z,71.50
2022-11-25T17:43:58.633Z,71.98
2022-11-25T17:46:29.512Z,71.96
2022-11-25T17:48:56.886Z,71.87
2022-11-25T17:51:24.079Z,72.21
2022-11-25T17:53:52.833Z,72.53
2022-11-25T17:56:26.084Z,72.34
2022-11-25T17:58:53.524Z,72.60
2022-11-25T18:01:21.199Z,72.23
2022-11-25T18:03:53.275Z,72.68
2022-11-25T18:06:21.037Z,72.63
2022-11-25T18:08:48.272Z,72.19
2022-11-25T18:11:18.038Z,72.15
2022-11-25T18:13:47.491Z,72.69
2022-11-25T18:16:17.049Z,72.92
2022-11-25T18:18:44.335Z,72.68
2022-11-25T18:21:11.898Z,72.82
2022-11-25T18:23:39.162Z,72.98
2022-11-25T18:26:06.544Z,73.05
2022-11-25T18:28:33.825Z,73.05
2022-11-25T18:31:03.800Z,72.71
2022-11-25T18:33:31.355Z,72.71
2022-11-25T18:35:58.655Z,72.66
2022-11-25T18:38:25.932Z,73.28
2022-11-25T18:40:54.256Z,73.70
2022-11-25T18:43:24.710Z,73.42
2022-11-25T18:45:53.641Z,73.32
2022-11-25T18:48:21.865Z,73.51
2022-11-25T18:50:50.764Z,73.67
2022-11-25T18:53:18.139Z,74.01
2022-11-25T18:55:45.510Z,74.26
2022-11-25T18:58:19.115Z,74.38
2022-11-25T19:00:50.178Z,74.95
2022-11-25T19:03:20.497Z,75.00
2022-11-25T19:05:48.302Z,75.29
2022-11-25T19:08:15.613Z,76.24
2022-11-25T19:10:45.165Z,76.26
2022-11-25T19:13:17.880Z,75.89
2022-11-25T19:15:45.453Z,75.44
2022-11-25T19:18:17.254Z,75.12
2022-11-25T19:20:45.983Z,75.31
2022-11-25T19:23:22.660Z,75.73
2022-11-25T19:25:50.111Z,75.68
2022-11-25T19:28:20.215Z,75.85
2022-11-25T19:30:47.646Z,75.54
2022-11-25T19:33:27.044Z,76.01
2022-11-25T19:35:55.026Z,76.62
2022-11-25T19:38:25.975Z,76.61
2022-11-25T19:40:55.131Z,77.05
2022-11-25T19:43:23.365Z,76.79
2022-11-25T19:45:50.858Z,77.00
2022-11-25T19:48:19.806Z,76.74
2022-11-25T19:50:49.098Z,76.68
2022-11-25T19:53:20.020Z,77.12
2022-11-25T19:55:47.989Z,77.75
2022-11-25T19:58:15.672Z,78.12
2022-11-25T20:00:44.458Z,77.92
2022-11-25T20:03:16.523Z,78.41
2022-11-25T20:05:43.802Z,78.58
2022-11-25T20:08:18.595Z,78.68
2022-11-25T20:10:46.113Z,79.01
2022-11-25T20:13:13.428Z,78.96
2022-11-25T20:15:43.837Z,79.19
2022-11-25T20:18:18.106Z,79.23
2022-11-25T20:20:46.647Z,79.34
2022-11-25T20:23:38.653Z,79.40
2022-11-25T20:26:16.239Z,78.75
2022-11-25T20:28:43.564Z,78.57
2022-11-25T20:31:13.403Z,78.82
2022-11-25T20:33:40.750Z,78.94
2022-11-25T20:36:13.949Z,79.43
2022-11-25T20:38:54.414Z,79.64
2022-11-25T20:41:27.468Z,79.45
2022-11-25T20:43:56.993Z,79.15
2022-11-25T20:46:28.937Z,79.28
2022-11-25T20:48:58.421Z,79.70
2022-11-25T20:51:25.984Z,79.80
2022-11-25T20:53:56.606Z,79.44
2022-11-25T20:56:25.728Z,79.03
2022-11-25T20:58:54.181Z,78.97
2022-11-25T21:01:21.983Z,78.39
2022-11-25T21:03:49.928Z,79.14
2022-11-25T21:06:24.613Z,79.44
2022-11-25T21:08:53.669Z,79.12
2022-11-25T21:11:22.640Z,79.50
2022-11-25T21:13:50.339Z,79.09
2022-11-25T21:16:18.079Z,78.47
2022-11-25T21:18:45.343Z,77.98
2022-11-25T21:21:29.129Z,78.09
2022-11-25T21:23:58.288Z,79.02
2022-11-25T21:26:26.179Z,79.62
2022-11-25T21:28:54.305Z,79.94
2022-11-25T21:31:23.672Z,80.55
2022-11-25T21:33:53.460Z,80.41
2022-11-25T21:36:23.200Z,80.66
2022-11-25T21:38:51.980Z,80.12
2022-11-25T21:41:19.708Z,79.80
2022-11-25T21:43:48.697Z,80.78
2022-11-25T21:46:21.425Z,81.00
2022-11-25T21:48:48.829Z,80.79
2022-11-25T21:51:21.831Z,81.35
2022-11-25T21:53:50.841Z,80.79
2022-11-25T21:56:34.578Z,80.52
2022-11-25T21:59:03.796Z,80.13
2022-11-25T22:01:31.188Z,79.98
2022-11-25T22:03:58.493Z,80.56
2022-11-25T22:06:28.505Z,81.11
2022-11-25T22:08:56.651Z,81.06
2022-11-25T22:11:31.700Z,80.13
2022-11-25T22:13:59.782Z,79.55
2022-11-25T22:16:31.933Z,79.37
2022-11-25T22:18:59.540Z,78.55
2022-11-25T22:21:26.810Z,79.73
2022-11-25T22:23:54.106Z,80.25
2022-11-25T22:26:25.850Z,80.29
2022-11-25T22:28:53.366Z,80.68
2022-11-25T22:31:20.814Z,80.98
2022-11-25T22:33:48.224Z,80.57
2022-11-25T22:36:24.580Z,83.56
2022-11-25T22:38:51.899Z,65.39
2022-11-25T22:41:19.127Z,67.82
2022-11-25T22:43:49.819Z,70.26
2022-11-25T22:46:18.090Z,72.84
2022-11-25T22:48:45.559Z,75.11
2022-11-25T22:51:21.669Z,76.07
2022-11-25T22:53:48.902Z,76.64
2022-11-25T22:56:18.199Z,77.66
2022-11-25T22:58:46.133Z,78.73
2022-11-25T23:01:14.848Z,78.84
2022-11-25T23:03:43.221Z,79.59
2022-11-25T23:06:12.270Z,79.76
2022-11-25T23:08:41.219Z,80.56
2022-11-25T23:11:15.952Z,80.36
2022-11-25T23:13:43.509Z,80.55
2022-11-25T23:16:11.126Z,80.79
2022-11-25T23:18:40.890Z,80.90
2022-11-25T23:21:17.239Z,80.51
2022-11-25T23:23:44.583Z,80.97
2022-11-25T23:26:12.073Z,81.73
2022-11-25T23:28:39.435Z,81.66
2022-11-25T23:31:07.021Z,81.64
2022-11-25T23:33:37.859Z,81.81
2022-11-25T23:36:14.515Z,81.34
2022-11-25T23:38:44.308Z,81.32
2022-11-25T23:41:15.691Z,81.51
2022-11-25T23:43:43.058Z,82.12
2022-11-25T23:46:13.822Z,82.73
2022-11-25T23:48:42.510Z,82.59
2022-11-25T23:51:10.349Z,82.69
2022-11-25T23:53:39.235Z,83.21
2022-11-25T23:56:06.773Z,83.24
2022-11-25T23:58:34.546Z,82.91
